createdAt,value
2018-12-05T00:00:39.115Z,25.00
2018-12-05T00:01:39.120Z,22.70
2018-12-05T00:02:39.119Z,21.20
2018-12-05T00:04:39.140Z,20.90
2018-12-05T00:05:39.148Z,23.40
2018-12-05T00:06:39.915Z,22.00
2018-12-05T00:07:39.127Z,22.00
2018-12-05T00:08:39.138Z,22.80
2018-12-05T00:09:39.130Z,17.80
2018-12-05T00:10:39.143Z,20.50
2018-12-05T00:11:39.141Z,14.50
2018-12-05T00:12:39.141Z,20.00
2018-12-05T00:13:39.144Z,22.70
2018-12-05T00:14:39.139Z,22.30
2018-12-05T00:15:39.146Z,21.20
2018-12-05T00:16:39.142Z,21.50
2018-12-05T00:17:39.156Z,19.10
2018-12-05T00:18:39.153Z,26.40
2018-12-05T00:19:39.151Z,23.60
2018-12-05T00:20:39.141Z,24.00
2018-12-05T00:21:39.156Z,23.10
2018-12-05T00:22:39.157Z,27.00
2018-12-05T00:23:39.165Z,23.50
2018-12-05T00:24:39.165Z,23.50
2018-12-05T00:25:39.164Z,20.60
2018-12-05T00:26:39.157Z,25.90
2018-12-05T00:27:39.164Z,23.50
2018-12-05T00:28:39.166Z,20.00
2018-12-05T00:29:39.162Z,26.60
2018-12-05T00:30:39.172Z,29.50
2018-12-05T00:31:39.174Z,26.50
2018-12-05T00:32:39.171Z,23.60
2018-12-05T00:33:39.178Z,22.20
2018-12-05T00:34:39.179Z,20.50
2018-12-05T00:35:39.178Z,22.00
2018-12-05T00:36:39.182Z,25.90
2018-12-05T00:37:39.178Z,24.60
2018-12-05T00:38:39.200Z,22.70
2018-12-05T00:39:39.187Z,20.10
2018-12-05T00:40:39.189Z,27.20
2018-12-05T00:41:39.186Z,21.60
2018-12-05T00:42:39.194Z,25.70
2018-12-05T00:43:39.194Z,21.40
2018-12-05T00:44:39.187Z,22.20
2018-12-05T00:45:39.197Z,24.10
2018-12-05T00:46:39.199Z,31.40
2018-12-05T00:47:39.194Z,30.60
2018-12-05T00:48:39.200Z,24.30
2018-12-05T00:49:39.199Z,26.60
2018-12-05T00:51:39.209Z,26.20
2018-12-05T00:52:39.202Z,24.80
2018-12-05T00:53:39.209Z,21.90
2018-12-05T00:54:39.210Z,26.60
2018-12-05T00:55:39.211Z,22.80
2018-12-05T00:56:39.211Z,19.60
2018-12-05T00:57:39.209Z,32.50
2018-12-05T00:59:39.213Z,16.20
2018-12-05T01:00:39.213Z,18.00
2018-12-05T01:01:39.219Z,19.30
2018-12-05T01:02:39.220Z,21.30
2018-12-05T01:03:39.225Z,20.80
2018-12-05T01:04:39.222Z,24.30
2018-12-05T01:05:39.232Z,20.80
2018-12-05T01:06:39.236Z,19.60
2018-12-05T01:07:39.224Z,20.20
2018-12-05T01:08:39.233Z,15.90
2018-12-05T01:09:39.247Z,21.70
2018-12-05T01:10:39.247Z,19.70
2018-12-05T01:11:39.237Z,20.40
2018-12-05T01:12:39.241Z,21.50
2018-12-05T01:13:39.255Z,21.40
2018-12-05T01:14:39.249Z,18.70
2018-12-05T01:15:39.246Z,23.70
2018-12-05T01:16:39.309Z,26.60
2018-12-05T01:17:39.254Z,23.50
2018-12-05T01:18:39.259Z,27.50
2018-12-05T01:19:39.256Z,18.80
2018-12-05T01:20:39.253Z,23.40
2018-12-05T01:21:39.256Z,20.50
2018-12-05T01:22:39.265Z,22.50
2018-12-05T01:23:39.260Z,20.60
2018-12-05T01:24:39.264Z,20.20
2018-12-05T01:25:39.267Z,25.10
2018-12-05T01:26:39.269Z,20.00
2018-12-05T01:27:39.273Z,31.00
2018-12-05T01:28:39.278Z,24.30
2018-12-05T01:29:39.270Z,23.90
2018-12-05T01:30:39.273Z,21.50
2018-12-05T01:31:39.283Z,18.30
2018-12-05T01:32:39.340Z,17.10
2018-12-05T01:33:39.291Z,26.70
2018-12-05T01:34:39.283Z,19.90
2018-12-05T01:35:39.288Z,24.10
2018-12-05T01:36:39.288Z,21.60
2018-12-05T01:37:39.291Z,23.20
2018-12-05T01:38:39.292Z,23.50
2018-12-05T01:39:39.294Z,20.00
2018-12-05T01:40:39.301Z,23.70
2018-12-05T01:41:39.299Z,22.20
2018-12-05T01:42:39.296Z,21.70
2018-12-05T01:43:39.306Z,21.40
2018-12-05T01:44:39.301Z,25.40
2018-12-05T01:45:39.306Z,22.30
2018-12-05T01:46:39.306Z,25.60
2018-12-05T01:47:39.307Z,25.10
2018-12-05T01:48:39.311Z,24.20
2018-12-05T01:49:39.312Z,19.50
2018-12-05T01:50:39.323Z,24.10
2018-12-05T01:51:39.314Z,25.00
2018-12-05T01:52:39.319Z,17.70
2018-12-05T01:53:39.322Z,16.90
2018-12-05T01:54:39.315Z,22.00
2018-12-05T01:55:39.318Z,21.00
2018-12-05T01:56:39.325Z,22.90
2018-12-05T01:57:39.325Z,23.00
2018-12-05T01:58:39.330Z,19.70
2018-12-05T01:59:39.332Z,21.60
2018-12-05T02:00:39.343Z,20.70
2018-12-05T02:01:39.336Z,27.60
2018-12-05T02:02:39.326Z,18.60
2018-12-05T02:03:39.339Z,22.70
2018-12-05T02:04:39.339Z,16.30
2018-12-05T02:05:39.336Z,27.20
2018-12-05T02:06:39.353Z,22.70
2018-12-05T02:07:39.348Z,21.00
2018-12-05T02:08:39.341Z,21.10
2018-12-05T02:09:39.354Z,19.40
2018-12-05T02:10:39.360Z,22.40
2018-12-05T02:11:39.349Z,23.10
2018-12-05T02:12:39.351Z,23.30
2018-12-05T02:13:39.359Z,20.10
2018-12-05T02:14:39.352Z,22.00
2018-12-05T02:15:39.361Z,19.00
2018-12-05T02:16:39.359Z,23.40
2018-12-05T02:17:39.371Z,22.30
2018-12-05T02:18:39.365Z,22.10
2018-12-05T02:19:39.369Z,21.40
2018-12-05T02:20:39.369Z,22.40
2018-12-05T02:21:39.374Z,23.70
2018-12-05T02:22:39.377Z,29.20
2018-12-05T02:23:39.375Z,22.60
2018-12-05T02:24:39.380Z,25.70
2018-12-05T02:25:39.380Z,26.90
2018-12-05T02:26:39.385Z,26.20
2018-12-05T02:27:39.387Z,25.40
2018-12-05T02:30:39.405Z,22.90
2018-12-05T02:31:39.391Z,26.40
2018-12-05T02:32:39.394Z,29.60
2018-12-05T02:33:39.396Z,26.00
2018-12-05T02:34:39.391Z,25.50
2018-12-05T02:35:39.391Z,25.60
2018-12-05T02:36:39.397Z,26.90
2018-12-05T02:37:39.401Z,21.20
2018-12-05T02:38:39.414Z,25.70
2018-12-05T02:39:39.414Z,23.80
2018-12-05T02:41:39.439Z,29.50
2018-12-05T02:42:39.409Z,26.60
2018-12-05T02:43:39.411Z,27.50
2018-12-05T02:44:39.410Z,21.10
2018-12-05T02:45:39.419Z,32.50
2018-12-05T02:46:39.416Z,26.40
2018-12-05T02:47:39.420Z,21.70
2018-12-05T02:48:39.426Z,23.90
2018-12-05T02:49:39.425Z,32.50
2018-12-05T02:50:39.444Z,22.40
2018-12-05T02:51:39.415Z,29.40
2018-12-05T02:52:39.414Z,29.80
2018-12-05T02:53:39.416Z,29.10
2018-12-05T02:54:39.423Z,19.90
2018-12-05T02:55:39.427Z,24.60
2018-12-05T02:56:39.435Z,26.70
2018-12-05T02:57:39.441Z,23.50
2018-12-05T02:58:39.441Z,28.80
2018-12-05T02:59:39.454Z,26.90
2018-12-05T03:00:39.430Z,23.00
2018-12-05T03:01:39.440Z,25.40
2018-12-05T03:02:39.442Z,20.80
2018-12-05T03:03:39.448Z,22.70
2018-12-05T03:04:39.449Z,30.00
2018-12-05T03:05:39.461Z,27.40
2018-12-05T03:06:39.469Z,25.50
2018-12-05T03:07:39.456Z,30.10
2018-12-05T03:08:39.461Z,27.70
2018-12-05T03:09:39.473Z,33.40
2018-12-05T03:10:39.444Z,31.10
2018-12-05T03:11:39.445Z,23.20
2018-12-05T03:12:39.447Z,28.20
2018-12-05T03:13:39.450Z,26.10
2018-12-05T03:14:39.463Z,27.90
2018-12-05T03:15:39.470Z,27.10
2018-12-05T03:16:39.475Z,21.40
2018-12-05T03:17:39.481Z,25.00
2018-12-05T03:18:39.490Z,24.10
2018-12-05T03:19:39.469Z,24.60
2018-12-05T03:20:39.499Z,25.50
2018-12-05T03:21:39.471Z,29.90
2018-12-05T03:22:39.476Z,23.90
2018-12-05T03:23:39.494Z,27.80
2018-12-05T03:24:39.469Z,24.30
2018-12-05T03:25:39.536Z,24.80
2018-12-05T03:27:39.476Z,26.60
2018-12-05T03:28:39.479Z,27.50
2018-12-05T03:29:39.481Z,25.10
2018-12-05T03:30:39.483Z,21.90
2018-12-05T03:31:39.488Z,23.70
2018-12-05T03:32:39.490Z,25.20
2018-12-05T03:33:39.490Z,26.90
2018-12-05T03:34:39.496Z,28.40
2018-12-05T03:35:39.497Z,22.70
2018-12-05T03:36:39.498Z,26.40
2018-12-05T03:37:39.502Z,18.10
2018-12-05T03:38:39.489Z,19.00
2018-12-05T03:39:39.497Z,19.90
2018-12-05T03:40:39.505Z,21.80
2018-12-05T03:41:39.489Z,22.80
2018-12-05T03:42:39.591Z,19.30
2018-12-05T03:43:39.512Z,25.60
2018-12-05T03:44:39.602Z,20.80
2018-12-05T03:45:39.506Z,23.50
2018-12-05T03:46:39.508Z,24.20
2018-12-05T03:47:39.510Z,25.30
2018-12-05T03:48:39.513Z,18.00
2018-12-05T03:49:39.511Z,19.60
2018-12-05T03:50:39.564Z,25.40
2018-12-05T03:51:39.509Z,22.90
2018-12-05T03:52:39.515Z,22.50
2018-12-05T03:53:39.514Z,24.90
2018-12-05T03:54:39.515Z,20.70
2018-12-05T03:55:39.545Z,21.20
2018-12-05T03:56:39.527Z,27.90
2018-12-05T03:57:39.521Z,24.90
2018-12-05T03:58:39.525Z,25.20
2018-12-05T03:59:39.524Z,22.10
2018-12-05T04:00:39.522Z,27.30
2018-12-05T04:01:39.534Z,29.00
2018-12-05T04:03:39.550Z,25.40
2018-12-05T04:04:39.529Z,21.10
2018-12-05T04:05:39.521Z,24.20
2018-12-05T04:06:39.532Z,27.00
2018-12-05T04:07:39.532Z,26.90
2018-12-05T04:08:39.565Z,23.40
2018-12-05T04:09:39.528Z,26.10
2018-12-05T04:10:39.539Z,27.10
2018-12-05T04:11:39.541Z,28.50
2018-12-05T04:12:40.835Z,21.20
2018-12-05T04:13:39.548Z,24.90
2018-12-05T04:14:39.540Z,24.90
2018-12-05T04:16:39.542Z,24.90
2018-12-05T04:17:39.547Z,31.50
2018-12-05T04:18:39.551Z,24.00
2018-12-05T04:19:39.561Z,22.40
2018-12-05T04:20:39.550Z,25.80
2018-12-05T04:21:39.557Z,28.50
2018-12-05T04:23:39.556Z,25.40
2018-12-05T04:24:39.557Z,20.40
2018-12-05T04:25:39.557Z,19.90
2018-12-05T04:26:39.554Z,24.50
2018-12-05T04:27:39.554Z,22.30
2018-12-05T04:28:39.559Z,20.40
2018-12-05T04:30:39.566Z,21.50
2018-12-05T04:31:39.569Z,21.40
2018-12-05T04:32:39.570Z,20.90
2018-12-05T04:33:39.565Z,20.90
2018-12-05T04:34:39.571Z,23.20
2018-12-05T04:35:39.574Z,23.00
2018-12-05T04:36:39.574Z,21.80
2018-12-05T04:37:39.570Z,20.50
2018-12-05T04:38:39.567Z,21.40
2018-12-05T04:39:39.580Z,21.20
2018-12-05T04:40:39.579Z,23.70
2018-12-05T04:41:39.580Z,23.30
2018-12-05T04:42:39.589Z,24.60
2018-12-05T04:43:39.582Z,27.20
2018-12-05T04:44:39.579Z,25.40
2018-12-05T04:45:39.583Z,21.90
2018-12-05T04:46:39.597Z,24.70
2018-12-05T04:47:39.588Z,27.00
2018-12-05T04:48:39.597Z,21.60
2018-12-05T04:49:39.592Z,25.10
2018-12-05T04:50:39.591Z,22.60
2018-12-05T04:51:39.591Z,23.90
2018-12-05T04:52:39.615Z,24.40
2018-12-05T04:53:39.589Z,27.70
2018-12-05T04:54:39.594Z,27.60
2018-12-05T04:55:39.593Z,23.80
2018-12-05T04:56:39.601Z,26.50
2018-12-05T04:57:39.600Z,26.90
2018-12-05T04:58:39.595Z,22.10
2018-12-05T04:59:39.602Z,27.50
2018-12-05T05:00:39.599Z,22.00
2018-12-05T05:01:39.601Z,27.80
2018-12-05T05:02:39.605Z,23.80
2018-12-05T05:03:39.599Z,23.50
2018-12-05T05:04:39.605Z,27.60
2018-12-05T05:05:39.619Z,24.80
2018-12-05T05:06:41.802Z,26.00
2018-12-05T05:07:39.611Z,24.80
2018-12-05T05:08:39.609Z,25.40
2018-12-05T05:09:39.609Z,23.80
2018-12-05T05:10:39.607Z,26.80
2018-12-05T05:11:39.625Z,25.20
2018-12-05T05:12:39.622Z,29.50
2018-12-05T05:13:39.618Z,22.60
2018-12-05T05:14:39.638Z,24.90
2018-12-05T05:15:39.615Z,24.70
2018-12-05T05:16:39.618Z,29.60
2018-12-05T05:17:39.620Z,22.60
2018-12-05T05:18:39.611Z,25.80
2018-12-05T05:19:39.623Z,26.80
2018-12-05T05:21:39.625Z,26.00
2018-12-05T05:22:39.625Z,25.70
2018-12-05T05:23:39.630Z,28.40
2018-12-05T05:24:39.623Z,27.80
2018-12-05T05:25:39.623Z,27.30
2018-12-05T05:26:39.625Z,29.40
2018-12-05T05:27:45.689Z,28.90
2018-12-05T05:28:39.630Z,26.90
2018-12-05T05:29:39.629Z,26.40
2018-12-05T05:30:39.635Z,26.20
2018-12-05T05:31:39.639Z,30.30
2018-12-05T05:32:39.635Z,25.10
2018-12-05T05:33:39.643Z,25.20
2018-12-05T05:34:39.632Z,24.20
2018-12-05T05:36:39.633Z,22.50
2018-12-05T05:37:39.656Z,26.60
2018-12-05T05:38:39.645Z,19.70
2018-12-05T05:39:39.667Z,22.90
2018-12-05T05:40:39.640Z,20.60
2018-12-05T05:41:39.634Z,23.90
2018-12-05T05:42:39.642Z,24.70
2018-12-05T05:43:39.647Z,26.10
2018-12-05T05:44:39.639Z,27.20
2018-12-05T05:45:39.643Z,25.50
2018-12-05T05:46:39.645Z,24.20
2018-12-05T05:47:39.650Z,17.00
2018-12-05T05:48:39.652Z,22.40
2018-12-05T05:49:39.641Z,22.30
2018-12-05T05:50:39.648Z,21.80
2018-12-05T05:51:39.651Z,22.60
2018-12-05T05:52:39.659Z,21.10
2018-12-05T05:53:39.653Z,24.60
2018-12-05T05:55:39.650Z,22.70
2018-12-05T05:56:39.650Z,26.90
2018-12-05T05:57:39.660Z,31.00
2018-12-05T05:58:39.645Z,25.40
2018-12-05T05:59:39.679Z,24.50
2018-12-05T06:00:39.652Z,25.80
2018-12-05T06:01:39.668Z,24.80
2018-12-05T06:02:39.664Z,25.50
2018-12-05T06:03:39.659Z,22.60
2018-12-05T06:04:39.661Z,24.40
2018-12-05T06:05:39.671Z,23.70
2018-12-05T06:06:39.663Z,21.40
2018-12-05T06:07:39.660Z,23.50
2018-12-05T06:08:39.667Z,22.00
2018-12-05T06:09:39.664Z,21.50
2018-12-05T06:10:39.670Z,25.10
2018-12-05T06:11:39.670Z,17.50
2018-12-05T06:12:39.670Z,24.80
2018-12-05T06:13:39.684Z,22.60
2018-12-05T06:14:39.673Z,25.00
2018-12-05T06:15:39.671Z,27.20
2018-12-05T06:17:39.673Z,26.10
2018-12-05T06:18:39.670Z,24.20
2018-12-05T06:19:39.675Z,24.60
2018-12-05T06:20:39.675Z,25.30
2018-12-05T06:21:39.672Z,17.90
2018-12-05T06:22:39.679Z,23.10
2018-12-05T06:23:39.690Z,22.40
2018-12-05T06:24:39.680Z,21.80
2018-12-05T06:25:39.683Z,24.00
2018-12-05T06:26:39.691Z,21.10
2018-12-05T06:27:39.675Z,25.40
2018-12-05T06:28:39.680Z,27.90
2018-12-05T06:29:39.686Z,21.90
2018-12-05T06:30:39.692Z,25.00
2018-12-05T06:31:39.697Z,19.10
2018-12-05T06:32:39.687Z,20.10
2018-12-05T06:33:39.692Z,21.10
2018-12-05T06:34:39.732Z,18.40
2018-12-05T06:35:39.704Z,21.70
2018-12-05T06:36:39.688Z,19.20
2018-12-05T06:37:39.690Z,25.10
2018-12-05T06:38:39.684Z,23.20
2018-12-05T06:39:39.695Z,27.40
2018-12-05T06:40:39.710Z,23.90
2018-12-05T06:41:39.709Z,20.50
2018-12-05T06:42:39.706Z,22.70
2018-12-05T06:43:39.701Z,22.90
2018-12-05T06:44:39.702Z,17.10
2018-12-05T06:45:39.718Z,21.30
2018-12-05T06:46:39.702Z,22.20
2018-12-05T06:47:39.713Z,24.70
2018-12-05T06:48:39.727Z,23.50
2018-12-05T06:49:39.705Z,17.30
2018-12-05T06:50:39.706Z,18.40
2018-12-05T06:51:39.707Z,20.00
2018-12-05T06:52:39.726Z,20.60
2018-12-05T06:53:39.715Z,18.30
2018-12-05T06:54:39.716Z,19.70
2018-12-05T06:55:39.710Z,14.60
2018-12-05T06:56:39.712Z,20.50
2018-12-05T06:57:39.725Z,20.90
2018-12-05T06:58:39.726Z,21.20
2018-12-05T06:59:39.717Z,21.80
2018-12-05T07:00:39.716Z,21.10
2018-12-05T07:01:39.723Z,18.70
2018-12-05T07:02:39.714Z,21.30
2018-12-05T07:03:39.720Z,22.20
2018-12-05T07:04:39.720Z,22.50
2018-12-05T07:05:39.717Z,23.70
2018-12-05T07:06:39.719Z,16.80
2018-12-05T07:07:39.721Z,19.50
2018-12-05T07:09:39.767Z,21.00
2018-12-05T07:10:39.728Z,18.40
2018-12-05T07:11:39.725Z,23.20
2018-12-05T07:12:39.725Z,23.00
2018-12-05T07:13:39.729Z,23.80
2018-12-05T07:14:39.720Z,24.30
2018-12-05T07:15:39.726Z,22.40
2018-12-05T07:17:39.729Z,22.10
2018-12-05T07:18:39.734Z,21.10
2018-12-05T07:20:39.736Z,17.70
2018-12-05T07:21:39.740Z,19.30
2018-12-05T07:22:39.742Z,24.40
2018-12-05T07:23:39.740Z,29.10
2018-12-05T07:24:39.741Z,21.80
2018-12-05T07:25:39.773Z,21.00
2018-12-05T07:27:39.757Z,18.20
2018-12-05T07:28:39.742Z,18.00
2018-12-05T07:29:39.751Z,17.10
2018-12-05T07:30:39.753Z,22.10
2018-12-05T07:31:39.752Z,17.90
2018-12-05T07:32:39.750Z,17.70
2018-12-05T07:33:39.752Z,18.30
2018-12-05T07:34:39.761Z,21.80
2018-12-05T07:35:39.750Z,18.00
2018-12-05T07:36:39.844Z,17.60
2018-12-05T07:37:39.761Z,23.70
2018-12-05T07:38:39.773Z,18.30
2018-12-05T07:39:39.764Z,25.50
2018-12-05T07:40:39.755Z,18.20
2018-12-05T07:41:39.761Z,20.10
2018-12-05T07:42:39.767Z,19.20
2018-12-05T07:43:39.778Z,19.00
2018-12-05T07:44:39.784Z,19.00
2018-12-05T07:45:39.766Z,18.60
2018-12-05T07:46:39.766Z,18.10
2018-12-05T07:47:39.766Z,15.50
2018-12-05T07:48:39.774Z,19.70
2018-12-05T07:49:39.761Z,19.70
2018-12-05T07:50:39.774Z,19.30
2018-12-05T07:51:39.777Z,21.70
2018-12-05T07:52:39.779Z,17.20
2018-12-05T07:53:39.842Z,23.70
2018-12-05T07:54:39.784Z,18.40
2018-12-05T07:55:39.780Z,19.50
2018-12-05T07:56:39.790Z,21.20
2018-12-05T07:57:39.839Z,17.40
2018-12-05T07:58:39.780Z,21.70
2018-12-05T07:59:39.789Z,22.70
2018-12-05T08:00:39.780Z,22.80
2018-12-05T08:01:39.795Z,20.50
2018-12-05T08:02:39.792Z,20.50
2018-12-05T08:03:39.794Z,24.00
2018-12-05T08:04:39.796Z,19.10
2018-12-05T08:05:39.794Z,22.30
2018-12-05T08:06:39.792Z,18.20
2018-12-05T08:07:39.794Z,24.60
2018-12-05T08:09:39.798Z,20.30
2018-12-05T08:10:39.798Z,26.50
2018-12-05T08:11:39.797Z,23.80
2018-12-05T08:12:39.800Z,23.00
2018-12-05T08:13:39.799Z,18.30
2018-12-05T08:14:39.809Z,22.10
2018-12-05T08:15:39.817Z,20.50
2018-12-05T08:16:39.835Z,22.10
2018-12-05T08:17:39.811Z,20.60
2018-12-05T08:18:39.822Z,22.10
2018-12-05T08:19:39.821Z,26.30
2018-12-05T08:20:39.816Z,19.80
2018-12-05T08:21:39.819Z,21.40
2018-12-05T08:22:39.821Z,18.20
2018-12-05T08:23:39.837Z,26.00
2018-12-05T08:24:39.831Z,18.10
2018-12-05T08:25:40.847Z,19.60
2018-12-05T08:26:39.825Z,28.80
2018-12-05T08:27:39.825Z,18.10
2018-12-05T08:28:39.823Z,18.60
2018-12-05T08:29:39.828Z,22.80
2018-12-05T08:30:39.826Z,20.20
2018-12-05T08:31:39.835Z,20.20
2018-12-05T08:32:39.861Z,18.80
2018-12-05T08:33:39.844Z,21.40
2018-12-05T08:34:39.845Z,20.20
2018-12-05T08:35:39.847Z,23.80
2018-12-05T08:36:39.854Z,17.30
2018-12-05T08:37:39.843Z,18.70
2018-12-05T08:38:39.849Z,19.20
2018-12-05T08:39:39.855Z,18.20
2018-12-05T08:40:39.852Z,23.00
2018-12-05T08:41:39.862Z,25.10
2018-12-05T08:42:39.860Z,19.00
2018-12-05T08:43:39.866Z,17.90
2018-12-05T08:44:39.861Z,16.30
2018-12-05T08:45:39.868Z,20.10
2018-12-05T08:46:39.884Z,23.30
2018-12-05T08:47:39.902Z,22.80
2018-12-05T08:48:39.873Z,23.70
2018-12-05T08:49:39.869Z,18.20
2018-12-05T08:50:39.874Z,20.50
2018-12-05T08:51:39.882Z,17.90
2018-12-05T08:52:39.883Z,26.60
2018-12-05T08:53:39.884Z,24.30
2018-12-05T08:54:39.888Z,22.80
2018-12-05T08:55:39.897Z,21.30
2018-12-05T08:56:39.898Z,18.10
2018-12-05T08:57:39.912Z,15.80
2018-12-05T08:58:39.906Z,15.10
2018-12-05T09:00:39.929Z,16.10
2018-12-05T09:01:39.916Z,19.90
2018-12-05T09:03:39.919Z,18.10
2018-12-05T09:04:39.921Z,16.90
2018-12-05T09:05:39.924Z,18.40
2018-12-05T09:06:39.920Z,19.20
2018-12-05T09:07:39.927Z,18.60
2018-12-05T09:08:39.935Z,14.90
2018-12-05T09:09:39.943Z,20.90
2018-12-05T09:10:39.924Z,18.10
2018-12-05T09:11:39.934Z,22.90
2018-12-05T09:12:39.934Z,18.90
2018-12-05T09:13:39.939Z,15.70
2018-12-05T09:14:39.945Z,16.40
2018-12-05T09:15:39.949Z,15.90
2018-12-05T09:16:39.945Z,20.40
2018-12-05T09:17:39.948Z,15.00
2018-12-05T09:19:39.962Z,17.20
2018-12-05T09:20:39.973Z,16.30
2018-12-05T09:21:39.978Z,21.70
2018-12-05T09:22:41.468Z,16.60
2018-12-05T09:23:40.001Z,20.90
2018-12-05T09:24:39.974Z,14.70
2018-12-05T09:25:39.978Z,15.50
2018-12-05T09:26:39.979Z,14.70
2018-12-05T09:27:39.988Z,18.30
2018-12-05T09:28:40.022Z,14.00
2018-12-05T09:29:40.007Z,19.50
2018-12-05T09:30:40.022Z,14.80
2018-12-05T09:31:39.998Z,13.50
2018-12-05T09:32:40.005Z,16.40
2018-12-05T09:33:40.057Z,19.80
2018-12-05T09:34:40.011Z,17.50
2018-12-05T09:35:40.020Z,17.20
2018-12-05T09:36:40.016Z,16.80
2018-12-05T09:37:40.020Z,16.00
2018-12-05T09:38:40.029Z,16.30
2018-12-05T09:39:40.029Z,19.60
2018-12-05T09:40:40.026Z,19.60
2018-12-05T09:41:40.072Z,17.60
2018-12-05T09:42:40.052Z,18.60
2018-12-05T09:43:40.039Z,16.90
2018-12-05T09:44:40.039Z,16.50
2018-12-05T09:45:40.047Z,20.50
2018-12-05T09:46:40.065Z,16.30
2018-12-05T09:47:40.058Z,16.10
2018-12-05T09:48:40.058Z,16.90
2018-12-05T09:50:40.076Z,15.20
2018-12-05T09:51:40.078Z,20.70
2018-12-05T09:52:40.073Z,17.90
2018-12-05T09:53:40.077Z,15.50
2018-12-05T09:54:40.082Z,18.30
2018-12-05T09:55:40.096Z,22.10
2018-12-05T09:56:40.104Z,18.90
2018-12-05T09:57:40.118Z,15.50
2018-12-05T09:58:40.100Z,15.40
2018-12-05T09:59:40.113Z,19.80
2018-12-05T10:00:40.107Z,14.20
2018-12-05T10:01:40.116Z,16.00
2018-12-05T10:02:40.115Z,15.00
2018-12-05T10:03:40.121Z,17.20
2018-12-05T10:04:40.128Z,13.00
2018-12-05T10:05:40.130Z,15.10
2018-12-05T10:06:40.148Z,14.50
2018-12-05T10:07:40.149Z,18.50
2018-12-05T10:08:40.135Z,16.30
2018-12-05T10:09:40.157Z,18.10
2018-12-05T10:10:40.143Z,17.90
2018-12-05T10:11:40.151Z,18.30
2018-12-05T10:12:40.167Z,18.60
2018-12-05T10:13:40.166Z,16.40
2018-12-05T10:14:40.168Z,22.00
2018-12-05T10:15:40.174Z,20.30
2018-12-05T10:16:40.174Z,18.40
2018-12-05T10:17:40.175Z,20.60
2018-12-05T10:18:40.186Z,17.70
2018-12-05T10:19:40.189Z,23.00
2018-12-05T10:21:40.215Z,19.40
2018-12-05T10:22:40.200Z,20.60
2018-12-05T10:23:40.212Z,17.50
2018-12-05T10:24:40.214Z,16.20
2018-12-05T10:25:40.214Z,18.30
2018-12-05T10:26:40.223Z,20.80
2018-12-05T10:27:40.233Z,15.70
2018-12-05T10:28:40.227Z,18.30
2018-12-05T10:29:40.228Z,16.40
2018-12-05T10:30:40.239Z,17.40
2018-12-05T10:31:43.959Z,15.30
2018-12-05T10:32:40.245Z,15.00
2018-12-05T10:33:40.248Z,15.60
2018-12-05T10:34:40.274Z,16.80
2018-12-05T10:35:40.258Z,15.50
2018-12-05T10:36:40.280Z,14.50
2018-12-05T10:37:40.266Z,12.90
2018-12-05T10:38:40.276Z,11.40
2018-12-05T10:39:40.322Z,14.40
2018-12-05T10:40:40.293Z,16.10
2018-12-05T10:41:40.290Z,12.40
2018-12-05T10:42:40.293Z,14.80
2018-12-05T10:43:40.306Z,13.90
2018-12-05T10:44:40.296Z,15.10
2018-12-05T10:45:40.306Z,15.20
2018-12-05T10:46:40.311Z,13.30
2018-12-05T10:47:40.311Z,13.80
2018-12-05T10:48:40.713Z,14.00
2018-12-05T10:49:40.312Z,15.40
2018-12-05T10:50:40.327Z,15.40
2018-12-05T10:51:40.337Z,16.00
2018-12-05T10:52:40.336Z,11.90
2018-12-05T10:53:40.345Z,16.60
2018-12-05T10:54:40.350Z,12.70
2018-12-05T10:55:40.353Z,16.10
2018-12-05T10:57:40.363Z,13.70
2018-12-05T10:58:40.364Z,17.30
2018-12-05T10:59:40.368Z,14.80
2018-12-05T11:00:40.375Z,12.80
2018-12-05T11:01:40.380Z,11.60
2018-12-05T11:02:40.383Z,16.90
2018-12-05T11:03:40.379Z,13.80
2018-12-05T11:04:40.388Z,18.90
2018-12-05T11:05:40.400Z,14.10
2018-12-05T11:06:40.395Z,15.50
2018-12-05T11:07:40.408Z,12.70
2018-12-05T11:08:40.408Z,15.30
2018-12-05T11:09:40.404Z,12.60
2018-12-05T11:10:40.415Z,20.70
2018-12-05T11:11:40.418Z,12.60
2018-12-05T11:12:40.417Z,14.70
2018-12-05T11:13:40.430Z,20.50
2018-12-05T11:14:40.502Z,17.20
2018-12-05T11:15:40.428Z,15.90
2018-12-05T11:16:40.438Z,13.90
2018-12-05T11:17:40.440Z,14.30
2018-12-05T11:18:40.488Z,14.50
2018-12-05T11:19:40.478Z,14.10
2018-12-05T11:20:40.529Z,15.90
2018-12-05T11:21:40.465Z,16.40
2018-12-05T11:22:40.466Z,13.70
2018-12-05T11:23:40.467Z,16.40
2018-12-05T11:24:40.476Z,14.80
2018-12-05T11:25:40.481Z,18.00
2018-12-05T11:26:40.491Z,19.00
2018-12-05T11:27:40.484Z,17.20
2018-12-05T11:28:40.491Z,14.60
2018-12-05T11:29:40.492Z,16.40
2018-12-05T11:30:40.501Z,14.10
2018-12-05T11:31:40.507Z,20.40
2018-12-05T11:32:40.510Z,11.60
2018-12-05T11:33:40.519Z,18.30
2018-12-05T11:34:40.523Z,17.70
2018-12-05T11:35:40.530Z,18.70
2018-12-05T11:36:40.542Z,20.70
2018-12-05T11:37:40.534Z,15.40
2018-12-05T11:38:40.561Z,16.40
2018-12-05T11:39:40.542Z,16.90
2018-12-05T11:40:40.549Z,19.40
2018-12-05T11:41:40.552Z,13.40
2018-12-05T11:42:40.564Z,18.20
2018-12-05T11:43:40.560Z,18.80
2018-12-05T11:44:40.578Z,18.90
2018-12-05T11:45:40.571Z,15.90
2018-12-05T11:46:40.581Z,15.30
2018-12-05T11:47:40.589Z,14.80
2018-12-05T11:48:40.580Z,21.80
2018-12-05T11:49:40.620Z,16.30
2018-12-05T11:50:40.607Z,14.90
2018-12-05T11:51:40.614Z,20.80
2018-12-05T11:52:40.628Z,15.70
2018-12-05T11:53:40.606Z,17.30
2018-12-05T11:54:40.624Z,16.90
2018-12-05T11:55:40.619Z,15.90
2018-12-05T11:56:40.625Z,16.90
2018-12-05T11:57:40.627Z,16.10
2018-12-05T11:58:40.630Z,12.20
2018-12-05T11:59:40.636Z,21.10
2018-12-05T12:00:40.652Z,17.10
2018-12-05T12:01:40.646Z,15.40
2018-12-05T12:02:40.650Z,15.40
2018-12-05T12:03:40.669Z,12.50
2018-12-05T12:04:40.659Z,14.70
2018-12-05T12:05:40.668Z,15.40
2018-12-05T12:06:40.679Z,13.20
2018-12-05T12:07:40.671Z,13.00
2018-12-05T12:08:40.697Z,14.50
2018-12-05T12:09:40.687Z,13.00
2018-12-05T12:10:40.693Z,14.50
2018-12-05T12:11:40.699Z,11.80
2018-12-05T12:12:40.710Z,14.70
2018-12-05T12:13:40.703Z,13.60
2018-12-05T12:14:40.714Z,18.30
2018-12-05T12:15:40.731Z,11.90
2018-12-05T12:16:40.729Z,11.50
2018-12-05T12:17:41.946Z,12.10
2018-12-05T12:18:40.738Z,14.90
2018-12-05T12:19:40.733Z,12.10
2018-12-05T12:20:40.744Z,15.90
2018-12-05T12:21:40.743Z,12.00
2018-12-05T12:22:40.751Z,10.70
2018-12-05T12:23:40.756Z,11.70
2018-12-05T12:24:40.761Z,15.00
2018-12-05T12:25:40.761Z,10.90
2018-12-05T12:26:40.769Z,13.90
2018-12-05T12:27:40.773Z,13.60
2018-12-05T12:28:40.775Z,14.10
2018-12-05T12:30:40.789Z,11.50
2018-12-05T12:31:40.799Z,13.30
2018-12-05T12:32:40.793Z,12.70
2018-12-05T12:33:40.811Z,9.90
2018-12-05T12:34:40.800Z,14.20
2018-12-05T12:35:40.807Z,11.70
2018-12-05T12:36:40.816Z,10.60
2018-12-05T12:37:40.816Z,8.70
2018-12-05T12:38:40.822Z,9.60
2018-12-05T12:39:40.828Z,10.40
2018-12-05T12:40:40.838Z,12.00
2018-12-05T12:41:40.836Z,10.20
2018-12-05T12:42:40.839Z,13.50
2018-12-05T12:43:40.846Z,10.90
2018-12-05T12:44:40.845Z,9.90
2018-12-05T12:45:40.849Z,9.70
2018-12-05T12:46:40.857Z,10.60
2018-12-05T12:47:40.874Z,11.70
2018-12-05T12:48:40.868Z,10.40
2018-12-05T12:49:40.863Z,9.50
2018-12-05T12:50:40.870Z,12.40
2018-12-05T12:51:40.883Z,10.50
2018-12-05T12:52:40.880Z,11.10
2018-12-05T12:53:40.882Z,18.50
2018-12-05T12:54:40.888Z,11.00
2018-12-05T12:55:40.914Z,9.70
2018-12-05T12:56:40.905Z,11.30
2018-12-05T12:57:40.901Z,9.20
2018-12-05T12:58:40.908Z,11.50
2018-12-05T12:59:40.920Z,10.40
2018-12-05T13:00:40.916Z,10.30
2018-12-05T13:01:40.935Z,9.30
2018-12-05T13:02:40.931Z,16.50
2018-12-05T13:03:40.920Z,10.10
2018-12-05T13:04:40.934Z,12.50
2018-12-05T13:05:40.952Z,10.40
2018-12-05T13:06:40.948Z,12.80
2018-12-05T13:08:40.949Z,14.60
2018-12-05T13:09:40.957Z,11.30
2018-12-05T13:10:40.962Z,14.20
2018-12-05T13:11:40.962Z,13.90
2018-12-05T13:12:40.968Z,8.90
2018-12-05T13:13:40.983Z,13.90
2018-12-05T13:14:40.976Z,11.00
2018-12-05T13:15:40.981Z,14.10
2018-12-05T13:16:40.987Z,14.60
2018-12-05T13:18:41.002Z,18.00
2018-12-05T13:19:40.996Z,19.80
2018-12-05T13:20:41.001Z,12.70
2018-12-05T13:21:41.017Z,11.60
2018-12-05T13:22:41.014Z,15.40